createdAt,value
2022-09-15T00:00:52.216Z,100171.09
2022-09-15T00:02:56.094Z,100164.09
2022-09-15T00:04:59.468Z,100160.59
2022-09-15T00:07:03.405Z,100164.13
2022-09-15T00:09:06.925Z,100167.63
2022-09-15T00:11:12.164Z,100168.50
2022-09-15T00:13:17.204Z,100158.88
2022-09-15T00:15:20.899Z,100170.22
2022-09-15T00:17:24.259Z,100171.97
2022-09-15T00:19:27.658Z,100171.97
2022-09-15T00:21:33.414Z,100169.34
2022-09-15T00:23:37.429Z,100161.47
2022-09-15T00:25:45.889Z,100157.09
2022-09-15T00:27:49.557Z,100157.97
2022-09-15T00:29:54.180Z,100164.97
2022-09-15T00:31:57.486Z,100155.31
2022-09-15T00:34:03.791Z,100161.47
2022-09-15T00:36:09.112Z,100160.59
2022-09-15T00:38:14.016Z,100162.34
2022-09-15T00:40:17.497Z,100162.31
2022-09-15T00:42:22.905Z,100166.72
2022-09-15T00:44:54.963Z,100163.22
2022-09-15T00:47:18.339Z,100165.84
2022-09-15T00:49:26.296Z,100171.97
2022-09-15T00:51:38.004Z,100171.09
2022-09-15T00:53:42.201Z,100179.00
2022-09-15T00:55:47.490Z,100169.34
2022-09-15T00:57:54.892Z,100185.16
2022-09-15T01:00:00.832Z,100173.75
2022-09-15T01:02:12.022Z,100180.75
2022-09-15T01:04:16.775Z,100190.41
2022-09-15T01:06:25.399Z,100187.75
2022-09-15T01:08:34.085Z,100190.38
2022-09-15T01:10:39.722Z,100196.53
2022-09-15T01:12:43.213Z,100193.91
2022-09-15T01:14:46.503Z,100187.75
2022-09-15T01:16:57.323Z,100183.38
2022-09-15T01:19:33.411Z,100195.66
2022-09-15T01:21:42.667Z,100193.00
2022-09-15T01:24:30.603Z,100185.13
2022-09-15T01:26:59.464Z,100184.25
2022-09-15T01:29:37.923Z,100181.63
2022-09-15T01:32:00.991Z,100178.13
2022-09-15T01:34:08.863Z,100186.00
2022-09-15T01:36:15.637Z,100186.00
2022-09-15T01:38:29.010Z,100185.13
2022-09-15T01:40:37.118Z,100170.22
2022-09-15T01:42:43.353Z,100172.84
2022-09-15T01:44:53.060Z,100172.88
2022-09-15T01:47:01.495Z,100183.38
2022-09-15T01:49:07.844Z,100179.00
2022-09-15T01:51:11.897Z,100169.38
2022-09-15T01:53:18.791Z,100176.38
2022-09-15T01:55:26.463Z,100162.34
2022-09-15T01:57:30.174Z,100171.97
2022-09-15T01:59:35.371Z,100166.72
2022-09-15T02:01:45.272Z,100164.09
2022-09-15T02:03:55.533Z,100162.34
2022-09-15T02:06:03.308Z,100168.50
2022-09-15T02:08:15.066Z,100169.38
2022-09-15T02:10:25.839Z,100172.88
2022-09-15T02:12:35.871Z,100168.50
2022-09-15T02:14:49.150Z,100174.63
2022-09-15T02:16:55.160Z,100170.25
2022-09-15T02:19:08.845Z,100171.13
2022-09-15T02:21:18.129Z,100184.25
2022-09-15T02:23:26.855Z,100178.13
2022-09-15T02:25:34.741Z,100183.38
2022-09-15T02:27:44.241Z,100183.38
2022-09-15T02:29:49.639Z,100168.47
2022-09-15T02:31:57.428Z,100186.03
2022-09-15T02:34:07.019Z,100178.16
2022-09-15T02:36:14.481Z,100182.53
2022-09-15T02:38:18.126Z,100184.25
2022-09-15T02:40:22.951Z,100172.88
2022-09-15T02:42:27.670Z,100167.59
2022-09-15T02:44:31.797Z,100161.47
2022-09-15T02:46:35.159Z,100181.63
2022-09-15T02:48:39.935Z,100185.13
2022-09-15T02:50:43.209Z,100174.59
2022-09-15T02:52:46.595Z,100178.09
2022-09-15T02:54:50.371Z,100174.59
2022-09-15T02:56:53.885Z,100184.22
2022-09-15T02:58:57.229Z,100186.88
2022-09-15T03:01:02.816Z,100185.13
2022-09-15T03:03:06.352Z,100190.41
2022-09-15T03:05:12.727Z,100188.63
2022-09-15T03:07:16.297Z,100193.91
2022-09-15T03:09:19.613Z,100188.66
2022-09-15T03:11:24.996Z,100192.13
2022-09-15T03:13:28.512Z,100193.91
2022-09-15T03:15:31.968Z,100195.66
2022-09-15T03:17:36.266Z,100193.91
2022-09-15T03:19:39.737Z,100192.09
2022-09-15T03:21:44.406Z,100188.59
2022-09-15T03:23:48.057Z,100186.78
2022-09-15T03:25:51.393Z,100192.03
2022-09-15T03:27:54.680Z,100180.56
2022-09-15T03:29:57.955Z,100191.03
2022-09-15T03:32:01.292Z,100185.81
2022-09-15T03:34:04.810Z,100187.63
2022-09-15T03:36:08.944Z,100184.06
2022-09-15T03:38:13.651Z,100184.91
2022-09-15T03:40:17.486Z,100189.28
2022-09-15T03:42:21.445Z,100190.91
2022-09-15T03:44:25.010Z,100187.34
2022-09-15T03:46:28.601Z,100182.03
2022-09-15T03:48:34.696Z,100181.16
2022-09-15T03:50:38.097Z,100182.16
2022-09-15T03:52:41.417Z,100161.16
2022-09-15T03:54:46.153Z,100184.91
2022-09-15T03:56:50.281Z,100208.47
2022-09-15T03:58:54.161Z,100204.94
2022-09-15T04:00:57.511Z,100198.84
2022-09-15T04:03:01.011Z,100188.22
2022-09-15T04:05:04.522Z,100199.72
2022-09-15T04:07:08.759Z,100205.88
2022-09-15T04:09:12.325Z,100191.00
2022-09-15T04:11:18.984Z,100206.81
2022-09-15T04:13:26.655Z,100200.69
2022-09-15T04:15:36.530Z,100193.59
2022-09-15T04:17:40.007Z,100198.84
2022-09-15T04:19:45.138Z,100194.50
2022-09-15T04:21:48.598Z,100191.91
2022-09-15T04:23:52.259Z,100149.75
2022-09-15T04:25:57.022Z,100213.72
2022-09-15T04:28:02.007Z,100212.03
2022-09-15T04:30:06.447Z,100208.53
2022-09-15T04:32:10.154Z,100215.50
2022-09-15T04:34:13.539Z,100205.91
2022-09-15T04:36:19.386Z,100213.81
2022-09-15T04:38:22.979Z,100204.22
2022-09-15T04:40:26.372Z,100209.38
2022-09-15T04:42:31.056Z,100203.09
2022-09-15T04:44:35.867Z,100211.75
2022-09-15T04:46:39.414Z,100210.91
2022-09-15T04:48:43.996Z,100206.47
2022-09-15T04:50:50.251Z,100198.50
2022-09-15T04:52:53.556Z,100200.31
2022-09-15T04:54:57.312Z,100208.13
2022-09-15T04:57:00.612Z,100196.78
2022-09-15T04:59:04.453Z,100194.28
2022-09-15T05:01:11.610Z,100199.59
2022-09-15T05:03:15.350Z,100202.38
2022-09-15T05:05:19.411Z,100201.50
2022-09-15T05:07:22.835Z,100204.19
2022-09-15T05:09:29.407Z,100205.97
2022-09-15T05:11:32.894Z,100205.97
2022-09-15T05:13:37.322Z,100209.50
2022-09-15T05:15:40.652Z,100203.41
2022-09-15T05:17:45.392Z,100206.06
2022-09-15T05:19:48.767Z,100162.16
2022-09-15T05:21:52.134Z,100212.16
2022-09-15T05:23:56.092Z,100208.66
2022-09-15T05:26:01.144Z,100215.66
2022-09-15T05:28:04.472Z,100217.44
2022-09-15T05:30:37.675Z,100216.56
2022-09-15T05:32:32.325Z,100217.41
2022-09-15T05:34:37.008Z,100212.19
2022-09-15T05:36:40.445Z,100217.41
2022-09-15T05:38:44.347Z,100212.16
2022-09-15T05:40:48.046Z,100217.41
2022-09-15T05:42:51.462Z,100226.19
2022-09-15T05:44:54.796Z,100216.59
2022-09-15T05:46:58.273Z,100219.19
2022-09-15T05:49:01.757Z,100221.84
2022-09-15T05:51:07.182Z,100230.59
2022-09-15T05:53:10.525Z,100225.38
2022-09-15T05:55:16.966Z,100221.00
2022-09-15T05:57:20.294Z,100227.13
2022-09-15T05:59:23.582Z,100232.38
2022-09-15T06:01:28.728Z,100233.25
2022-09-15T06:03:32.496Z,100245.50
2022-09-15T06:05:36.196Z,100239.41
2022-09-15T06:07:40.928Z,100241.13
2022-09-15T06:09:45.186Z,100248.13
2022-09-15T06:11:48.492Z,100247.28
2022-09-15T06:13:51.929Z,100247.28
2022-09-15T06:15:55.970Z,100249.03
2022-09-15T06:17:59.590Z,100254.28
2022-09-15T06:20:06.093Z,100258.69
2022-09-15T06:22:09.485Z,100262.22
2022-09-15T06:24:14.577Z,100261.31
2022-09-15T06:26:19.361Z,100262.13
2022-09-15T06:28:24.483Z,100264.78
2022-09-15T06:30:27.840Z,100267.47
2022-09-15T06:32:31.232Z,100269.25
2022-09-15T06:34:34.612Z,100261.34
2022-09-15T06:36:39.114Z,100251.72
2022-09-15T06:38:43.154Z,100257.84
2022-09-15T06:40:57.180Z,100264.84
2022-09-15T06:43:01.470Z,100268.38
2022-09-15T06:45:05.410Z,100262.22
2022-09-15T06:47:10.490Z,100259.59
2022-09-15T06:49:14.037Z,100263.97
2022-09-15T06:51:20.621Z,100265.72
2022-09-15T06:53:24.008Z,100268.38
2022-09-15T06:55:28.336Z,100275.38
2022-09-15T06:57:33.059Z,100278.00
2022-09-15T06:59:36.398Z,100278.88
2022-09-15T07:01:39.751Z,100284.13
2022-09-15T07:03:44.898Z,100286.75
2022-09-15T07:05:48.450Z,100284.13
2022-09-15T07:07:51.793Z,100268.38
2022-09-15T07:09:55.669Z,100279.75
2022-09-15T07:11:58.994Z,100285.00
2022-09-15T07:14:03.842Z,100281.50
2022-09-15T07:16:12.180Z,100285.03
2022-09-15T07:18:15.685Z,100285.00
2022-09-15T07:20:18.984Z,100277.13
2022-09-15T07:22:22.322Z,100293.78
2022-09-15T07:24:25.723Z,100296.38
2022-09-15T07:26:30.847Z,100287.66
2022-09-15T07:28:34.298Z,100296.41
2022-09-15T07:30:40.120Z,100302.53
2022-09-15T07:32:43.453Z,100296.41
2022-09-15T07:34:47.868Z,100287.63
2022-09-15T07:36:51.183Z,100301.69
2022-09-15T07:38:54.605Z,100301.66
2022-09-15T07:41:04.490Z,100303.38
2022-09-15T07:43:07.974Z,100296.41
2022-09-15T07:45:12.046Z,100297.28
2022-09-15T07:47:17.614Z,100306.03
2022-09-15T07:49:21.194Z,100311.28
2022-09-15T07:51:25.088Z,100314.78
2022-09-15T07:53:30.027Z,100291.13
2022-09-15T07:55:33.949Z,100310.41
2022-09-15T07:57:37.591Z,100309.50
2022-09-15T07:59:41.457Z,100312.16
2022-09-15T08:01:44.945Z,100320.94
2022-09-15T08:03:51.824Z,100325.28
2022-09-15T08:05:58.753Z,100318.31
2022-09-15T08:08:02.290Z,100324.44
2022-09-15T08:10:06.195Z,100320.94
2022-09-15T08:12:09.958Z,100334.09
2022-09-15T08:14:13.253Z,100347.25
2022-09-15T08:16:19.056Z,100343.72
2022-09-15T08:18:22.709Z,100341.06
2022-09-15T08:20:27.549Z,100353.34
2022-09-15T08:22:31.046Z,100332.28
2022-09-15T08:24:34.426Z,100359.47
2022-09-15T08:26:38.457Z,100362.97
2022-09-15T08:28:42.102Z,100364.69
2022-09-15T08:30:45.521Z,100364.75
2022-09-15T08:32:49.366Z,100355.94
2022-09-15T08:34:52.664Z,100362.97
2022-09-15T08:36:57.382Z,100358.56
2022-09-15T08:39:00.689Z,100366.50
2022-09-15T08:41:07.527Z,100369.94
2022-09-15T08:43:18.875Z,100362.97
2022-09-15T08:45:25.963Z,100373.53
2022-09-15T08:47:35.015Z,100376.16
2022-09-15T08:49:52.526Z,100368.22
2022-09-15T08:52:01.472Z,100380.53
2022-09-15T08:54:11.201Z,100368.22
2022-09-15T08:56:18.046Z,100367.34
2022-09-15T08:58:24.597Z,100378.78
2022-09-15T09:00:28.307Z,100387.53
2022-09-15T09:02:47.869Z,100383.13
2022-09-15T09:05:03.752Z,100384.84
2022-09-15T09:07:19.663Z,100392.72
2022-09-15T09:09:32.642Z,100391.88
2022-09-15T09:11:48.307Z,100386.56
2022-09-15T09:14:00.539Z,100390.94
2022-09-15T09:16:26.533Z,100392.69
2022-09-15T09:18:59.551Z,100392.69
2022-09-15T09:21:10.408Z,100390.91
2022-09-15T09:23:18.504Z,100398.81
2022-09-15T09:25:27.732Z,100397.94
2022-09-15T09:27:34.889Z,100399.69
2022-09-15T09:29:43.382Z,100399.66
2022-09-15T09:31:50.197Z,100397.03
2022-09-15T09:34:00.187Z,100409.28
2022-09-15T09:36:04.620Z,100409.28
2022-09-15T09:38:10.027Z,100411.06
2022-09-15T09:40:16.073Z,100404.00
2022-09-15T09:42:20.642Z,100400.50
2022-09-15T09:44:31.615Z,100405.78
2022-09-15T09:46:35.287Z,100394.28
2022-09-15T09:48:39.640Z,100393.38
2022-09-15T09:50:44.209Z,100387.19
2022-09-15T09:52:47.637Z,100400.47
2022-09-15T09:55:01.361Z,100389.97
2022-09-15T09:57:29.059Z,100390.81
2022-09-15T09:59:35.536Z,100396.91
2022-09-15T10:01:38.869Z,100393.38
2022-09-15T10:03:43.785Z,100383.69
2022-09-15T10:06:02.689Z,100381.06
2022-09-15T10:08:06.122Z,100382.84
2022-09-15T10:10:20.750Z,100372.28
2022-09-15T10:12:30.740Z,100395.97
2022-09-15T10:14:36.653Z,100381.88
2022-09-15T10:16:40.078Z,100392.44
2022-09-15T10:18:43.776Z,100398.56
2022-09-15T10:20:50.748Z,100391.50
2022-09-15T10:23:03.832Z,100341.59
2022-09-15T10:25:55.221Z,100392.38
2022-09-15T10:28:04.261Z,100390.66
2022-09-15T10:30:18.524Z,100384.50
2022-09-15T10:32:25.888Z,100383.69
2022-09-15T10:34:31.583Z,100386.28
2022-09-15T10:36:35.037Z,100382.78
2022-09-15T10:38:43.087Z,100383.59
2022-09-15T10:40:56.861Z,100335.41
2022-09-15T10:43:10.502Z,100387.13
2022-09-15T10:45:34.814Z,100389.69
2022-09-15T10:47:49.900Z,100386.94
2022-09-15T10:50:06.905Z,100380.81
2022-09-15T10:52:20.548Z,100379.13
2022-09-15T10:54:42.045Z,100378.22
2022-09-15T10:56:50.132Z,100385.19
2022-09-15T10:59:03.945Z,100384.31
2022-09-15T11:01:25.032Z,100386.97
2022-09-15T11:03:49.834Z,100386.03
2022-09-15T11:06:04.014Z,100383.34
2022-09-15T11:08:35.507Z,100381.56
2022-09-15T11:10:46.931Z,100386.03
2022-09-15T11:13:01.925Z,100380.91
2022-09-15T11:15:18.727Z,100383.50
2022-09-15T11:17:41.795Z,100379.09
2022-09-15T11:20:02.799Z,100390.41
2022-09-15T11:22:12.142Z,100381.66
2022-09-15T11:24:28.304Z,100386.19
2022-09-15T11:26:37.969Z,100384.56
2022-09-15T11:28:50.764Z,100388.19
2022-09-15T11:31:00.751Z,100376.78
2022-09-15T11:33:12.339Z,100380.28
2022-09-15T11:35:34.175Z,100382.91
2022-09-15T11:37:42.080Z,100343.47
2022-09-15T11:39:52.125Z,100397.38
2022-09-15T11:42:02.155Z,100388.28
2022-09-15T11:44:19.807Z,100395.09
2022-09-15T11:46:31.020Z,100408.94
2022-09-15T11:48:41.192Z,100400.94
2022-09-15T11:50:47.451Z,100398.09
2022-09-15T11:52:56.230Z,100392.53
2022-09-15T11:55:06.150Z,100386.72
2022-09-15T11:57:19.240Z,100401.41
2022-09-15T11:59:31.608Z,100405.25
2022-09-15T12:01:41.181Z,100381.47
2022-09-15T12:03:52.745Z,100393.91
2022-09-15T12:05:59.552Z,100399.44
2022-09-15T12:08:10.333Z,100376.81
2022-09-15T12:10:18.959Z,100397.06
2022-09-15T12:12:25.386Z,100393.56
2022-09-15T12:14:36.764Z,100393.50
2022-09-15T12:16:41.020Z,100397.97
2022-09-15T12:18:52.710Z,100396.13
2022-09-15T12:21:02.876Z,100393.69
2022-09-15T12:23:16.591Z,100400.75
2022-09-15T12:25:25.843Z,100394.69
2022-09-15T12:27:29.595Z,100391.53
2022-09-15T12:29:42.139Z,100389.59
2022-09-15T12:31:47.056Z,100375.50
2022-09-15T12:33:56.481Z,100379.06
2022-09-15T12:36:34.042Z,100409.84
2022-09-15T12:38:37.367Z,100402.91
2022-09-15T12:40:41.737Z,100401.03
2022-09-15T12:42:47.414Z,100404.53
2022-09-15T12:44:55.701Z,100418.88
2022-09-15T12:47:01.476Z,100386.69
2022-09-15T12:49:05.404Z,100391.97
2022-09-15T12:51:11.769Z,100398.13
2022-09-15T12:53:22.043Z,100407.88
2022-09-15T12:55:28.365Z,100400.09
2022-09-15T12:57:36.281Z,100414.16
2022-09-15T12:59:39.950Z,100414.97
2022-09-15T13:01:51.171Z,100418.53
2022-09-15T13:04:25.648Z,100400.94
2022-09-15T13:06:30.117Z,100410.50
2022-09-15T13:09:16.377Z,100414.88
2022-09-15T13:11:25.427Z,100410.53
2022-09-15T13:13:38.389Z,100407.81
2022-09-15T13:15:46.769Z,100417.47
2022-09-15T13:17:52.090Z,100420.19
2022-09-15T13:19:59.695Z,100392.16
2022-09-15T13:22:08.736Z,100408.78
2022-09-15T13:24:20.356Z,100414.09
2022-09-15T13:26:28.212Z,100408.06
2022-09-15T13:28:32.362Z,100409.88
2022-09-15T13:30:45.245Z,100415.94
2022-09-15T13:32:59.209Z,100413.31
2022-09-15T13:35:27.776Z,100413.31
2022-09-15T13:40:39.377Z,100401.06
2022-09-15T13:42:58.330Z,100397.63
2022-09-15T13:45:17.670Z,100410.72
2022-09-15T13:47:35.733Z,100405.47
2022-09-15T13:50:05.318Z,100409.72
2022-09-15T13:52:22.800Z,100425.66
2022-09-15T13:54:26.245Z,100422.25
2022-09-15T13:56:35.478Z,100419.69
2022-09-15T13:59:12.978Z,100428.50
2022-09-15T14:01:08.031Z,100427.72
2022-09-15T14:03:16.267Z,100416.31
2022-09-15T14:05:24.034Z,100425.97
2022-09-15T14:07:27.824Z,100420.69
2022-09-15T14:09:34.247Z,100418.06
2022-09-15T14:11:39.548Z,100418.06
2022-09-15T14:13:45.691Z,100415.47
2022-09-15T14:16:04.229Z,100415.50
2022-09-15T14:18:19.433Z,100404.91
2022-09-15T14:20:27.661Z,100410.19
2022-09-15T14:22:33.178Z,100408.44
2022-09-15T14:24:41.452Z,100424.28
2022-09-15T14:26:44.884Z,100417.28
2022-09-15T14:28:53.548Z,100417.22
2022-09-15T14:30:56.946Z,100419.81
2022-09-15T14:33:02.441Z,100415.44
2022-09-15T14:35:08.506Z,100368.06
2022-09-15T14:37:20.787Z,100423.25
2022-09-15T14:39:24.783Z,100421.50
2022-09-15T14:41:33.065Z,100421.53
2022-09-15T14:43:39.343Z,100400.47
2022-09-15T14:45:55.772Z,100416.31
2022-09-15T14:48:04.336Z,100418.97
2022-09-15T14:50:09.918Z,100419.81
2022-09-15T14:52:31.682Z,100417.19
2022-09-15T14:54:38.861Z,100415.41
2022-09-15T14:56:44.176Z,100415.41
2022-09-15T14:58:51.928Z,100405.75
2022-09-15T15:01:01.423Z,100410.16
2022-09-15T15:03:20.254Z,100407.47
2022-09-15T15:05:27.335Z,100403.94
2022-09-15T15:07:36.208Z,100408.28
2022-09-15T15:09:47.078Z,100367.09
2022-09-15T15:11:57.752Z,100418.00
2022-09-15T15:14:02.737Z,100415.38
2022-09-15T15:16:08.979Z,100416.28
2022-09-15T15:18:32.187Z,100423.31
2022-09-15T15:20:35.805Z,100420.69
2022-09-15T15:22:42.319Z,100421.56
2022-09-15T15:24:49.175Z,100408.38
2022-09-15T15:26:52.851Z,100406.59
2022-09-15T15:28:56.258Z,100406.56
2022-09-15T15:31:18.831Z,100414.53
2022-09-15T15:33:27.140Z,100417.19
2022-09-15T15:35:32.128Z,100424.22
2022-09-15T15:37:36.103Z,100419.88
2022-09-15T15:39:41.033Z,100424.22
2022-09-15T15:41:44.569Z,100395.25
2022-09-15T15:43:59.285Z,100418.09
2022-09-15T15:46:04.924Z,100421.59
2022-09-15T15:48:10.816Z,100431.31
2022-09-15T15:50:15.958Z,100417.22
2022-09-15T15:52:19.345Z,100415.44
2022-09-15T15:54:23.078Z,100427.75
2022-09-15T15:56:27.796Z,100420.69
2022-09-15T15:58:31.387Z,100424.22
2022-09-15T16:00:39.642Z,100418.09
2022-09-15T16:02:43.627Z,100423.34
2022-09-15T16:04:47.063Z,100418.09
2022-09-15T16:06:51.726Z,100416.34
2022-09-15T16:08:58.094Z,100415.44
2022-09-15T16:11:03.642Z,100416.34
2022-09-15T16:13:10.300Z,100421.56
2022-09-15T16:15:16.869Z,100398.81
2022-09-15T16:17:20.349Z,100422.50
2022-09-15T16:19:23.757Z,100416.38
2022-09-15T16:21:36.746Z,100421.63
2022-09-15T16:23:40.384Z,100422.50
2022-09-15T16:25:49.759Z,100425.19
2022-09-15T16:27:53.213Z,100421.66
2022-09-15T16:29:57.913Z,100423.41
2022-09-15T16:32:01.306Z,100425.13
2022-09-15T16:34:04.814Z,100418.97
2022-09-15T16:36:12.964Z,100368.16
2022-09-15T16:38:16.547Z,100420.75
2022-09-15T16:40:19.889Z,100418.97
2022-09-15T16:42:23.416Z,100421.63
2022-09-15T16:44:27.224Z,100421.66
2022-09-15T16:46:31.937Z,100420.75
2022-09-15T16:48:35.522Z,100418.97
2022-09-15T16:50:42.657Z,100423.41
2022-09-15T16:52:50.426Z,100430.44
2022-09-15T16:54:53.776Z,100425.19
2022-09-15T16:56:57.186Z,100429.59
2022-09-15T16:59:00.899Z,100425.19
2022-09-15T17:01:04.965Z,100430.47
2022-09-15T17:03:10.174Z,100431.38
2022-09-15T17:05:18.167Z,100435.75
2022-09-15T17:07:21.863Z,100436.63
2022-09-15T17:09:25.402Z,100427.84
2022-09-15T17:11:30.423Z,100436.66
2022-09-15T17:13:35.350Z,100430.47
2022-09-15T17:15:41.205Z,100438.41
2022-09-15T17:17:45.327Z,100434.03
2022-09-15T17:19:50.177Z,100437.53
2022-09-15T17:21:53.748Z,100434.91
2022-09-15T17:23:57.121Z,100443.69
2022-09-15T17:26:04.143Z,100443.69
2022-09-15T17:28:07.742Z,100446.34
2022-09-15T17:30:13.671Z,100440.19
2022-09-15T17:32:17.179Z,100440.19
2022-09-15T17:34:20.661Z,100445.50
2022-09-15T17:36:25.828Z,100439.34
2022-09-15T17:38:29.340Z,100441.13
2022-09-15T17:40:33.428Z,100442.88
2022-09-15T17:42:36.849Z,100436.72
2022-09-15T17:44:40.209Z,100442.84
2022-09-15T17:46:43.748Z,100390.19
2022-09-15T17:48:47.307Z,100441.13
2022-09-15T17:50:51.480Z,100441.97
2022-09-15T17:52:56.944Z,100418.31
2022-09-15T17:55:02.153Z,100443.75
2022-09-15T17:57:06.132Z,100447.25
2022-09-15T17:59:13.058Z,100442.84
2022-09-15T18:01:19.735Z,100445.47
2022-09-15T18:03:27.616Z,100445.50
2022-09-15T18:05:33.156Z,100449.88
2022-09-15T18:07:36.840Z,100449.03
2022-09-15T18:09:41.617Z,100447.25
2022-09-15T18:11:45.147Z,100453.38
2022-09-15T18:13:48.631Z,100445.50
2022-09-15T18:15:52.567Z,100450.75
2022-09-15T18:17:58.276Z,100427.03
2022-09-15T18:20:01.919Z,100462.16
2022-09-15T18:22:05.495Z,100463.94
2022-09-15T18:24:10.578Z,100465.69
2022-09-15T18:26:15.543Z,100465.69
2022-09-15T18:28:20.148Z,100473.59
2022-09-15T18:30:25.913Z,100478.84
2022-09-15T18:32:29.654Z,100476.22
2022-09-15T18:34:33.483Z,100465.66
2022-09-15T18:36:37.092Z,100476.19
2022-09-15T18:38:40.977Z,100474.47
2022-09-15T18:40:49.098Z,100479.72
2022-09-15T18:42:56.662Z,100445.50
2022-09-15T18:45:00.558Z,100472.69
2022-09-15T18:47:04.060Z,100479.69
2022-09-15T18:49:09.437Z,100481.44
2022-09-15T18:51:19.655Z,100476.22
2022-09-15T18:53:27.982Z,100474.41
2022-09-15T18:55:31.799Z,100480.63
2022-09-15T18:57:35.530Z,100482.34
2022-09-15T18:59:40.508Z,100479.69
2022-09-15T19:01:44.086Z,100484.13
2022-09-15T19:03:47.685Z,100485.88
2022-09-15T19:05:51.384Z,100480.63
2022-09-15T19:07:55.548Z,100489.41
2022-09-15T19:09:59.150Z,100477.94
2022-09-15T19:12:03.611Z,100489.38
2022-09-15T19:14:07.907Z,100488.47
2022-09-15T19:16:13.667Z,100497.22
2022-09-15T19:18:17.453Z,100502.50
2022-09-15T19:20:21.327Z,100498.97
2022-09-15T19:22:24.924Z,100492.84
2022-09-15T19:24:33.523Z,100501.63
2022-09-15T19:26:37.312Z,100503.38
2022-09-15T19:28:40.854Z,100499.00
2022-09-15T19:30:44.651Z,100502.50
2022-09-15T19:32:49.686Z,100507.75
2022-09-15T19:34:53.260Z,100509.50
2022-09-15T19:36:57.129Z,100506.84
2022-09-15T19:39:03.130Z,100516.50
2022-09-15T19:41:09.305Z,100497.16
2022-09-15T19:43:12.794Z,100472.56
2022-09-15T19:45:16.358Z,100519.09
2022-09-15T19:47:20.131Z,100529.66
2022-09-15T19:49:25.696Z,100522.63
2022-09-15T19:51:29.171Z,100509.50
2022-09-15T19:53:32.692Z,100515.63
2022-09-15T19:55:36.247Z,100519.16
2022-09-15T19:57:40.540Z,100520.00
2022-09-15T19:59:44.744Z,100513.91
2022-09-15T20:01:48.296Z,100520.09
2022-09-15T20:03:54.464Z,100531.44
2022-09-15T20:05:59.478Z,100520.88
2022-09-15T20:08:03.751Z,100527.88
2022-09-15T20:10:07.691Z,100527.88
2022-09-15T20:12:11.281Z,100530.53
2022-09-15T20:14:15.810Z,100532.28
2022-09-15T20:16:21.236Z,100528.72
2022-09-15T20:18:25.210Z,100539.28
2022-09-15T20:20:28.702Z,100542.78
2022-09-15T20:22:33.731Z,100540.13
2022-09-15T20:24:37.189Z,100533.13
2022-09-15T20:26:40.989Z,100533.06
2022-09-15T20:28:45.281Z,100523.41
2022-09-15T20:30:58.681Z,100541.75
2022-09-15T20:33:02.298Z,100545.28
2022-09-15T20:35:06.444Z,100540.84
2022-09-15T20:37:10.080Z,100552.25
2022-09-15T20:39:18.237Z,100556.66
2022-09-15T20:41:24.912Z,100552.28
2022-09-15T20:43:29.128Z,100561.09
2022-09-15T20:45:36.995Z,100547.06
2022-09-15T20:47:40.852Z,100560.22
2022-09-15T20:49:44.403Z,100559.31
2022-09-15T20:51:48.807Z,100561.03
2022-09-15T20:53:55.397Z,100555.78
2022-09-15T20:56:00.829Z,100554.00
2022-09-15T20:58:04.427Z,100505.63
2022-09-15T21:00:09.952Z,100558.34
2022-09-15T21:02:13.623Z,100554.78
2022-09-15T21:04:17.332Z,100560.00
2022-09-15T21:06:22.951Z,100533.53
2022-09-15T21:08:26.509Z,100555.44
2022-09-15T21:10:30.599Z,100529.06
2022-09-15T21:12:35.415Z,100564.22
2022-09-15T21:14:38.878Z,100562.50
2022-09-15T21:16:43.448Z,100561.56
2022-09-15T21:18:47.472Z,100562.47
2022-09-15T21:20:56.396Z,100556.38
2022-09-15T21:23:00.048Z,100561.66
2022-09-15T21:25:03.672Z,100568.63
2022-09-15T21:27:24.663Z,100567.72
2022-09-15T21:29:31.358Z,100565.06
2022-09-15T21:31:34.911Z,100558.97
2022-09-15T21:33:39.568Z,100569.44
2022-09-15T21:35:43.125Z,100576.44
2022-09-15T21:37:46.518Z,100581.69
2022-09-15T21:39:50.269Z,100576.38
2022-09-15T21:41:54.103Z,100579.06
2022-09-15T21:43:58.979Z,100580.03
2022-09-15T21:46:05.768Z,100585.22
2022-09-15T21:48:09.555Z,100574.66
2022-09-15T21:50:13.021Z,100582.50
2022-09-15T21:52:17.006Z,100581.66
2022-09-15T21:54:20.711Z,100584.28
2022-09-15T21:56:24.882Z,100585.09
2022-09-15T21:58:32.011Z,100580.75
2022-09-15T22:00:40.161Z,100580.72
2022-09-15T22:02:45.065Z,100581.63
2022-09-15T22:04:48.683Z,100583.34
2022-09-15T22:06:52.504Z,100588.63
2022-09-15T22:08:56.758Z,100587.75
2022-09-15T22:11:01.076Z,100588.63
2022-09-15T22:13:05.531Z,100575.34
2022-09-15T22:15:09.657Z,100585.03
2022-09-15T22:17:13.968Z,100585.06
2022-09-15T22:19:19.076Z,100591.16
2022-09-15T22:21:24.587Z,100596.47
2022-09-15T22:23:28.531Z,100601.53
2022-09-15T22:25:33.685Z,100601.56
2022-09-15T22:27:37.416Z,100599.84
2022-09-15T22:29:40.904Z,100599.00
2022-09-15T22:31:44.443Z,100604.13
2022-09-15T22:33:48.923Z,100603.28
2022-09-15T22:35:54.268Z,100607.63
2022-09-15T22:37:57.814Z,100603.25
2022-09-15T22:40:01.475Z,100593.47
2022-09-15T22:42:05.212Z,100608.50
2022-09-15T22:44:18.641Z,100606.78
2022-09-15T22:46:22.360Z,100609.38
2022-09-15T22:48:25.919Z,100599.78
2022-09-15T22:50:29.352Z,100607.50
2022-09-15T22:52:34.228Z,100600.53
2022-09-15T22:54:37.827Z,100599.50
2022-09-15T22:56:41.245Z,100597.72
2022-09-15T22:58:45.228Z,100603.00
2022-09-15T23:00:49.190Z,100598.50
2022-09-15T23:02:53.023Z,100595.97
2022-09-15T23:04:56.556Z,100595.25
2022-09-15T23:07:00.278Z,100588.22
2022-09-15T23:09:07.753Z,100590.94
2022-09-15T23:11:13.809Z,100592.63
2022-09-15T23:13:18.065Z,100582.09
2022-09-15T23:15:21.784Z,100579.50
2022-09-15T23:17:25.797Z,100568.09
2022-09-15T23:19:29.302Z,100574.25
2022-09-15T23:21:32.829Z,100584.72
2022-09-15T23:23:37.609Z,100575.97
2022-09-15T23:25:42.575Z,100573.03
2022-09-15T23:27:46.725Z,100572.28
2022-09-15T23:29:50.322Z,100578.53
2022-09-15T23:31:54.029Z,100583.78
2022-09-15T23:33:57.573Z,100560.06
2022-09-15T23:36:01.902Z,100585.50
2022-09-15T23:38:05.279Z,100577.56
2022-09-15T23:40:09.592Z,100577.50
2022-09-15T23:42:18.669Z,100582.72
2022-09-15T23:44:22.520Z,100583.53
2022-09-15T23:46:26.197Z,100565.00
2022-09-15T23:48:31.568Z,100586.97
2022-09-15T23:50:36.334Z,100579.03
2022-09-15T23:52:39.745Z,100585.13
2022-09-15T23:54:43.981Z,100588.75
2022-09-15T23:56:47.476Z,100586.22
2022-09-15T23:58:52.204Z,100582.72
